sensor_id;sensor_type;location;lat;lon;timestamp;P1;durP1;ratioP1;P2;durP2;ratioP2
9042;SDS011;4556;49.150;8.808;2023-03-03T00:00:42;36.07;;;22.87;;
9042;SDS011;4556;49.150;8.808;2023-03-03T00:03:10;38.10;;;22.30;;
9042;SDS011;4556;49.150;8.808;2023-03-03T00:05:42;38.57;;;22.57;;
9042;SDS011;4556;49.150;8.808;2023-03-03T00:08:09;42.13;;;24.10;;
9042;SDS011;4556;49.150;8.808;2023-03-03T00:10:36;41.30;;;23.70;;
9042;SDS011;4556;49.150;8.808;2023-03-03T00:13:05;39.43;;;22.93;;
9042;SDS011;4556;49.150;8.808;2023-03-03T00:15:38;35.70;;;22.03;;
9042;SDS011;4556;49.150;8.808;2023-03-03T00:18:09;38.63;;;22.87;;
9042;SDS011;4556;49.150;8.808;2023-03-03T00:20:48;37.23;;;23.03;;
9042;SDS011;4556;49.150;8.808;2023-03-03T00:23:19;43.70;;;23.77;;
9042;SDS011;4556;49.150;8.808;2023-03-03T00:25:55;40.50;;;24.47;;
9042;SDS011;4556;49.150;8.808;2023-03-03T00:28:24;40.03;;;22.97;;
9042;SDS011;4556;49.150;8.808;2023-03-03T00:30:53;41.40;;;24.40;;
9042;SDS011;4556;49.150;8.808;2023-03-03T00:33:24;39.00;;;22.97;;
9042;SDS011;4556;49.150;8.808;2023-03-03T00:35:55;38.63;;;23.93;;
9042;SDS011;4556;49.150;8.808;2023-03-03T00:38:23;40.60;;;23.87;;
9042;SDS011;4556;49.150;8.808;2023-03-03T00:40:50;42.13;;;23.70;;
9042;SDS011;4556;49.150;8.808;2023-03-03T00:43:18;38.63;;;23.50;;
9042;SDS011;4556;49.150;8.808;2023-03-03T00:45:46;43.67;;;24.10;;
9042;SDS011;4556;49.150;8.808;2023-03-03T00:48:24;39.23;;;23.57;;
9042;SDS011;4556;49.150;8.808;2023-03-03T00:50:53;43.33;;;24.50;;
9042;SDS011;4556;49.150;8.808;2023-03-03T00:53:22;41.90;;;23.60;;
9042;SDS011;4556;49.150;8.808;2023-03-03T00:55:51;41.00;;;23.50;;
9042;SDS011;4556;49.150;8.808;2023-03-03T00:58:19;36.97;;;23.23;;
9042;SDS011;4556;49.150;8.808;2023-03-03T01:00:47;43.33;;;24.67;;
9042;SDS011;4556;49.150;8.808;2023-03-03T01:03:15;44.20;;;24.90;;
9042;SDS011;4556;49.150;8.808;2023-03-03T01:05:44;43.13;;;24.57;;
9042;SDS011;4556;49.150;8.808;2023-03-03T01:08:12;41.23;;;24.57;;
9042;SDS011;4556;49.150;8.808;2023-03-03T01:10:41;43.43;;;24.90;;
9042;SDS011;4556;49.150;8.808;2023-03-03T01:13:11;42.43;;;24.40;;
9042;SDS011;4556;49.150;8.808;2023-03-03T01:15:38;45.00;;;24.40;;
9042;SDS011;4556;49.150;8.808;2023-03-03T01:18:06;45.53;;;24.73;;
9042;SDS011;4556;49.150;8.808;2023-03-03T01:20:33;41.60;;;25.57;;
9042;SDS011;4556;49.150;8.808;2023-03-03T01:23:00;39.50;;;24.57;;
9042;SDS011;4556;49.150;8.808;2023-03-03T01:25:27;43.70;;;24.37;;
9042;SDS011;4556;49.150;8.808;2023-03-03T01:27:56;41.50;;;25.30;;
9042;SDS011;4556;49.150;8.808;2023-03-03T01:30:23;44.03;;;25.83;;
9042;SDS011;4556;49.150;8.808;2023-03-03T01:32:51;38.60;;;23.57;;
9042;SDS011;4556;49.150;8.808;2023-03-03T01:35:18;44.37;;;24.47;;
9042;SDS011;4556;49.150;8.808;2023-03-03T01:37:45;42.23;;;24.87;;
9042;SDS011;4556;49.150;8.808;2023-03-03T01:40:14;40.63;;;23.73;;
9042;SDS011;4556;49.150;8.808;2023-03-03T01:42:43;45.70;;;25.57;;
9042;SDS011;4556;49.150;8.808;2023-03-03T01:45:24;45.93;;;26.33;;
9042;SDS011;4556;49.150;8.808;2023-03-03T01:47:54;41.40;;;23.97;;
9042;SDS011;4556;49.150;8.808;2023-03-03T01:50:27;44.97;;;25.20;;
9042;SDS011;4556;49.150;8.808;2023-03-03T01:53:00;43.83;;;24.93;;
9042;SDS011;4556;49.150;8.808;2023-03-03T01:55:31;43.50;;;25.80;;
9042;SDS011;4556;49.150;8.808;2023-03-03T01:58:02;42.90;;;25.00;;
9042;SDS011;4556;49.150;8.808;2023-03-03T02:00:33;44.43;;;25.40;;
9042;SDS011;4556;49.150;8.808;2023-03-03T02:03:01;43.60;;;25.37;;
9042;SDS011;4556;49.150;8.808;2023-03-03T02:05:29;42.30;;;25.73;;
9042;SDS011;4556;49.150;8.808;2023-03-03T02:07:57;44.53;;;26.87;;
9042;SDS011;4556;49.150;8.808;2023-03-03T02:10:24;50.50;;;26.17;;
9042;SDS011;4556;49.150;8.808;2023-03-03T02:12:53;47.17;;;26.63;;
9042;SDS011;4556;49.150;8.808;2023-03-03T02:15:22;44.77;;;24.80;;
9042;SDS011;4556;49.150;8.808;2023-03-03T02:17:53;46.07;;;24.93;;
9042;SDS011;4556;49.150;8.808;2023-03-03T02:20:26;44.87;;;24.97;;
9042;SDS011;4556;49.150;8.808;2023-03-03T02:23:02;44.30;;;24.63;;
9042;SDS011;4556;49.150;8.808;2023-03-03T02:25:33;41.27;;;24.03;;
9042;SDS011;4556;49.150;8.808;2023-03-03T02:28:08;42.63;;;24.00;;
9042;SDS011;4556;49.150;8.808;2023-03-03T02:30:36;48.87;;;25.87;;
9042;SDS011;4556;49.150;8.808;2023-03-03T02:33:04;45.13;;;26.00;;
9042;SDS011;4556;49.150;8.808;2023-03-03T02:35:32;45.27;;;26.00;;
9042;SDS011;4556;49.150;8.808;2023-03-03T02:38:03;41.93;;;24.33;;
9042;SDS011;4556;49.150;8.808;2023-03-03T02:40:41;42.87;;;25.13;;
9042;SDS011;4556;49.150;8.808;2023-03-03T02:43:14;46.60;;;25.70;;
9042;SDS011;4556;49.150;8.808;2023-03-03T02:45:43;48.47;;;26.73;;
9042;SDS011;4556;49.150;8.808;2023-03-03T02:48:10;47.37;;;26.13;;
9042;SDS011;4556;49.150;8.808;2023-03-03T02:50:37;44.30;;;26.20;;
9042;SDS011;4556;49.150;8.808;2023-03-03T02:53:04;43.13;;;25.57;;
9042;SDS011;4556;49.150;8.808;2023-03-03T02:55:31;49.47;;;26.37;;
9042;SDS011;4556;49.150;8.808;2023-03-03T02:57:58;49.27;;;26.20;;
9042;SDS011;4556;49.150;8.808;2023-03-03T03:00:27;54.00;;;28.30;;
9042;SDS011;4556;49.150;8.808;2023-03-03T03:02:54;48.17;;;26.53;;
9042;SDS011;4556;49.150;8.808;2023-03-03T03:05:21;44.60;;;26.70;;
9042;SDS011;4556;49.150;8.808;2023-03-03T03:07:48;40.93;;;24.53;;
9042;SDS011;4556;49.150;8.808;2023-03-03T03:10:15;51.53;;;27.20;;
9042;SDS011;4556;49.150;8.808;2023-03-03T03:12:42;49.27;;;26.80;;
9042;SDS011;4556;49.150;8.808;2023-03-03T03:15:10;46.37;;;26.50;;
9042;SDS011;4556;49.150;8.808;2023-03-03T03:17:38;41.97;;;24.03;;
9042;SDS011;4556;49.150;8.808;2023-03-03T03:20:06;50.73;;;25.67;;
9042;SDS011;4556;49.150;8.808;2023-03-03T03:22:33;50.97;;;26.30;;
9042;SDS011;4556;49.150;8.808;2023-03-03T03:25:00;45.27;;;25.63;;
9042;SDS011;4556;49.150;8.808;2023-03-03T03:27:27;45.73;;;25.97;;
9042;SDS011;4556;49.150;8.808;2023-03-03T03:29:54;45.97;;;26.07;;
9042;SDS011;4556;49.150;8.808;2023-03-03T03:32:21;47.80;;;26.57;;
9042;SDS011;4556;49.150;8.808;2023-03-03T03:34:50;47.87;;;27.03;;
9042;SDS011;4556;49.150;8.808;2023-03-03T03:37:17;48.00;;;25.93;;
9042;SDS011;4556;49.150;8.808;2023-03-03T03:39:44;47.63;;;26.60;;
9042;SDS011;4556;49.150;8.808;2023-03-03T03:42:11;46.80;;;26.70;;
9042;SDS011;4556;49.150;8.808;2023-03-03T03:44:38;47.33;;;26.97;;
9042;SDS011;4556;49.150;8.808;2023-03-03T03:47:05;53.23;;;28.10;;
9042;SDS011;4556;49.150;8.808;2023-03-03T03:49:31;47.53;;;26.87;;
9042;SDS011;4556;49.150;8.808;2023-03-03T03:52:00;42.73;;;25.60;;
9042;SDS011;4556;49.150;8.808;2023-03-03T03:54:27;45.03;;;25.30;;
9042;SDS011;4556;49.150;8.808;2023-03-03T03:56:54;48.07;;;27.07;;
9042;SDS011;4556;49.150;8.808;2023-03-03T03:59:21;49.80;;;27.47;;
9042;SDS011;4556;49.150;8.808;2023-03-03T04:01:48;51.43;;;26.53;;
9042;SDS011;4556;49.150;8.808;2023-03-03T04:04:15;44.37;;;25.33;;
9042;SDS011;4556;49.150;8.808;2023-03-03T04:06:42;50.60;;;27.70;;
9042;SDS011;4556;49.150;8.808;2023-03-03T04:09:11;47.37;;;26.33;;
9042;SDS011;4556;49.150;8.808;2023-03-03T04:11:38;42.87;;;23.70;;
9042;SDS011;4556;49.150;8.808;2023-03-03T04:14:05;52.97;;;28.60;;
9042;SDS011;4556;49.150;8.808;2023-03-03T04:16:32;47.53;;;27.73;;
9042;SDS011;4556;49.150;8.808;2023-03-03T04:18:59;47.50;;;26.13;;
9042;SDS011;4556;49.150;8.808;2023-03-03T04:21:26;53.93;;;26.40;;
9042;SDS011;4556;49.150;8.808;2023-03-03T04:23:54;46.13;;;27.07;;
9042;SDS011;4556;49.150;8.808;2023-03-03T04:26:22;48.90;;;26.70;;
9042;SDS011;4556;49.150;8.808;2023-03-03T04:28:50;51.00;;;27.03;;
9042;SDS011;4556;49.150;8.808;2023-03-03T04:31:17;54.80;;;29.00;;
9042;SDS011;4556;49.150;8.808;2023-03-03T04:33:45;50.87;;;27.87;;
9042;SDS011;4556;49.150;8.808;2023-03-03T04:36:12;53.00;;;26.10;;
9042;SDS011;4556;49.150;8.808;2023-03-03T04:38:39;47.70;;;26.77;;
9042;SDS011;4556;49.150;8.808;2023-03-03T04:41:06;51.63;;;28.67;;
9042;SDS011;4556;49.150;8.808;2023-03-03T04:43:34;56.10;;;28.67;;
9042;SDS011;4556;49.150;8.808;2023-03-03T04:46:01;51.20;;;27.70;;
9042;SDS011;4556;49.150;8.808;2023-03-03T04:48:28;51.60;;;27.57;;
9042;SDS011;4556;49.150;8.808;2023-03-03T04:50:55;52.20;;;28.43;;
9042;SDS011;4556;49.150;8.808;2023-03-03T04:53:22;53.00;;;28.77;;
9042;SDS011;4556;49.150;8.808;2023-03-03T04:55:49;47.40;;;26.93;;
9042;SDS011;4556;49.150;8.808;2023-03-03T04:58:16;57.53;;;29.77;;
9042;SDS011;4556;49.150;8.808;2023-03-03T05:00:45;54.77;;;30.03;;
9042;SDS011;4556;49.150;8.808;2023-03-03T05:03:12;60.43;;;28.70;;
9042;SDS011;4556;49.150;8.808;2023-03-03T05:05:39;52.57;;;29.73;;
9042;SDS011;4556;49.150;8.808;2023-03-03T05:08:06;56.67;;;28.57;;
9042;SDS011;4556;49.150;8.808;2023-03-03T05:10:33;50.80;;;27.23;;
9042;SDS011;4556;49.150;8.808;2023-03-03T05:13:01;51.37;;;28.27;;
9042;SDS011;4556;49.150;8.808;2023-03-03T05:15:28;53.13;;;29.23;;
9042;SDS011;4556;49.150;8.808;2023-03-03T05:17:56;51.80;;;28.77;;
9042;SDS011;4556;49.150;8.808;2023-03-03T05:20:24;46.77;;;26.67;;
9042;SDS011;4556;49.150;8.808;2023-03-03T05:22:51;56.80;;;30.97;;
9042;SDS011;4556;49.150;8.808;2023-03-03T05:25:19;54.03;;;30.63;;
9042;SDS011;4556;49.150;8.808;2023-03-03T05:27:47;57.73;;;30.00;;
9042;SDS011;4556;49.150;8.808;2023-03-03T05:30:14;53.23;;;28.67;;
9042;SDS011;4556;49.150;8.808;2023-03-03T05:32:41;56.00;;;30.13;;
9042;SDS011;4556;49.150;8.808;2023-03-03T05:35:12;52.97;;;29.03;;
9042;SDS011;4556;49.150;8.808;2023-03-03T05:37:39;50.43;;;28.07;;
9042;SDS011;4556;49.150;8.808;2023-03-03T05:40:11;59.07;;;29.20;;
9042;SDS011;4556;49.150;8.808;2023-03-03T05:42:39;49.50;;;29.33;;
9042;SDS011;4556;49.150;8.808;2023-03-03T05:45:06;49.43;;;29.20;;
9042;SDS011;4556;49.150;8.808;2023-03-03T05:47:35;55.63;;;30.33;;
9042;SDS011;4556;49.150;8.808;2023-03-03T05:50:03;56.07;;;29.93;;
9042;SDS011;4556;49.150;8.808;2023-03-03T05:52:32;54.67;;;30.17;;
9042;SDS011;4556;49.150;8.808;2023-03-03T05:54:59;55.93;;;30.00;;
9042;SDS011;4556;49.150;8.808;2023-03-03T05:57:26;55.13;;;29.13;;
9042;SDS011;4556;49.150;8.808;2023-03-03T05:59:53;52.03;;;30.70;;
9042;SDS011;4556;49.150;8.808;2023-03-03T06:02:20;53.70;;;30.47;;
9042;SDS011;4556;49.150;8.808;2023-03-03T06:04:47;57.13;;;29.93;;
9042;SDS011;4556;49.150;8.808;2023-03-03T06:07:14;56.13;;;31.43;;
9042;SDS011;4556;49.150;8.808;2023-03-03T06:09:43;53.23;;;29.37;;
9042;SDS011;4556;49.150;8.808;2023-03-03T06:12:10;51.70;;;29.33;;
9042;SDS011;4556;49.150;8.808;2023-03-03T06:14:36;58.97;;;30.53;;
9042;SDS011;4556;49.150;8.808;2023-03-03T06:17:04;52.80;;;30.77;;
9042;SDS011;4556;49.150;8.808;2023-03-03T06:19:31;52.37;;;30.50;;
9042;SDS011;4556;49.150;8.808;2023-03-03T06:21:58;51.67;;;29.60;;
9042;SDS011;4556;49.150;8.808;2023-03-03T06:24:25;50.80;;;30.13;;
9042;SDS011;4556;49.150;8.808;2023-03-03T06:26:56;54.70;;;30.13;;
9042;SDS011;4556;49.150;8.808;2023-03-03T06:29:23;55.00;;;29.53;;
9042;SDS011;4556;49.150;8.808;2023-03-03T06:31:50;50.03;;;30.23;;
9042;SDS011;4556;49.150;8.808;2023-03-03T06:34:17;54.53;;;29.40;;
9042;SDS011;4556;49.150;8.808;2023-03-03T06:36:44;50.17;;;28.30;;
9042;SDS011;4556;49.150;8.808;2023-03-03T06:39:11;50.30;;;29.17;;
9042;SDS011;4556;49.150;8.808;2023-03-03T06:41:38;52.50;;;29.93;;
9042;SDS011;4556;49.150;8.808;2023-03-03T06:44:07;51.37;;;29.73;;
9042;SDS011;4556;49.150;8.808;2023-03-03T06:46:35;48.53;;;27.63;;
9042;SDS011;4556;49.150;8.808;2023-03-03T06:49:03;52.23;;;28.37;;
9042;SDS011;4556;49.150;8.808;2023-03-03T06:51:30;50.73;;;29.50;;
9042;SDS011;4556;49.150;8.808;2023-03-03T06:54:00;52.53;;;29.20;;
9042;SDS011;4556;49.150;8.808;2023-03-03T06:56:35;47.77;;;28.93;;
9042;SDS011;4556;49.150;8.808;2023-03-03T06:59:05;51.90;;;28.47;;
9042;SDS011;4556;49.150;8.808;2023-03-03T07:01:39;47.00;;;27.47;;
9042;SDS011;4556;49.150;8.808;2023-03-03T07:04:09;43.13;;;26.83;;
9042;SDS011;4556;49.150;8.808;2023-03-03T07:06:41;50.57;;;28.60;;
9042;SDS011;4556;49.150;8.808;2023-03-03T07:09:10;47.57;;;26.33;;
9042;SDS011;4556;49.150;8.808;2023-03-03T07:11:44;49.63;;;27.40;;
9042;SDS011;4556;49.150;8.808;2023-03-03T07:14:14;47.87;;;28.67;;
9042;SDS011;4556;49.150;8.808;2023-03-03T07:16:43;45.47;;;28.17;;
9042;SDS011;4556;49.150;8.808;2023-03-03T07:19:14;50.13;;;28.33;;
9042;SDS011;4556;49.150;8.808;2023-03-03T07:21:45;49.37;;;28.13;;
9042;SDS011;4556;49.150;8.808;2023-03-03T07:24:16;50.93;;;29.63;;
9042;SDS011;4556;49.150;8.808;2023-03-03T07:26:50;57.43;;;31.07;;
9042;SDS011;4556;49.150;8.808;2023-03-03T07:29:20;54.03;;;32.20;;
9042;SDS011;4556;49.150;8.808;2023-03-03T07:31:50;53.17;;;31.50;;
9042;SDS011;4556;49.150;8.808;2023-03-03T07:34:19;55.63;;;32.73;;
9042;SDS011;4556;49.150;8.808;2023-03-03T07:36:48;52.13;;;31.93;;
9042;SDS011;4556;49.150;8.808;2023-03-03T07:39:27;54.53;;;32.33;;
9042;SDS011;4556;49.150;8.808;2023-03-03T07:42:01;56.70;;;31.97;;
9042;SDS011;4556;49.150;8.808;2023-03-03T07:44:40;54.53;;;32.40;;
9042;SDS011;4556;49.150;8.808;2023-03-03T07:47:11;54.80;;;32.33;;
9042;SDS011;4556;49.150;8.808;2023-03-03T07:49:44;49.40;;;31.37;;
9042;SDS011;4556;49.150;8.808;2023-03-03T07:52:17;45.30;;;29.80;;
9042;SDS011;4556;49.150;8.808;2023-03-03T07:54:50;52.23;;;31.77;;
9042;SDS011;4556;49.150;8.808;2023-03-03T07:57:18;54.03;;;29.47;;
9042;SDS011;4556;49.150;8.808;2023-03-03T07:59:50;47.53;;;28.87;;
9042;SDS011;4556;49.150;8.808;2023-03-03T08:02:29;48.07;;;28.27;;
9042;SDS011;4556;49.150;8.808;2023-03-03T08:05:11;41.37;;;25.73;;
9042;SDS011;4556;49.150;8.808;2023-03-03T08:07:50;36.77;;;24.13;;
9042;SDS011;4556;49.150;8.808;2023-03-03T08:10:26;33.80;;;21.83;;
9042;SDS011;4556;49.150;8.808;2023-03-03T08:13:00;33.93;;;19.40;;
9042;SDS011;4556;49.150;8.808;2023-03-03T08:15:37;28.07;;;18.57;;
9042;SDS011;4556;49.150;8.808;2023-03-03T08:18:08;30.47;;;17.43;;
9042;SDS011;4556;49.150;8.808;2023-03-03T08:20:44;26.57;;;17.57;;
9042;SDS011;4556;49.150;8.808;2023-03-03T08:23:13;26.20;;;17.20;;
9042;SDS011;4556;49.150;8.808;2023-03-03T08:25:41;28.00;;;18.30;;
9042;SDS011;4556;49.150;8.808;2023-03-03T08:28:09;27.50;;;17.27;;
9042;SDS011;4556;49.150;8.808;2023-03-03T08:30:42;27.50;;;16.90;;
9042;SDS011;4556;49.150;8.808;2023-03-03T08:33:10;26.73;;;16.80;;
9042;SDS011;4556;49.150;8.808;2023-03-03T08:35:38;27.70;;;17.33;;
9042;SDS011;4556;49.150;8.808;2023-03-03T08:38:05;26.73;;;17.10;;
9042;SDS011;4556;49.150;8.808;2023-03-03T08:40:33;29.50;;;18.10;;
9042;SDS011;4556;49.150;8.808;2023-03-03T08:43:01;28.53;;;17.50;;
9042;SDS011;4556;49.150;8.808;2023-03-03T08:45:28;27.20;;;17.07;;
9042;SDS011;4556;49.150;8.808;2023-03-03T08:47:57;27.77;;;17.60;;
9042;SDS011;4556;49.150;8.808;2023-03-03T08:50:25;29.67;;;17.27;;
9042;SDS011;4556;49.150;8.808;2023-03-03T08:52:53;28.50;;;17.47;;
9042;SDS011;4556;49.150;8.808;2023-03-03T08:55:21;27.47;;;18.10;;
9042;SDS011;4556;49.150;8.808;2023-03-03T08:57:48;31.30;;;17.97;;
9042;SDS011;4556;49.150;8.808;2023-03-03T09:00:16;28.93;;;17.83;;
9042;SDS011;4556;49.150;8.808;2023-03-03T09:02:43;30.50;;;17.40;;
9042;SDS011;4556;49.150;8.808;2023-03-03T09:05:12;25.60;;;17.50;;
9042;SDS011;4556;49.150;8.808;2023-03-03T09:07:39;25.23;;;16.80;;
9042;SDS011;4556;49.150;8.808;2023-03-03T09:10:07;28.03;;;17.90;;
9042;SDS011;4556;49.150;8.808;2023-03-03T09:12:37;27.70;;;17.07;;
9042;SDS011;4556;49.150;8.808;2023-03-03T09:15:14;28.07;;;16.87;;
9042;SDS011;4556;49.150;8.808;2023-03-03T09:17:46;26.17;;;16.93;;
9042;SDS011;4556;49.150;8.808;2023-03-03T09:20:26;25.40;;;16.80;;
9042;SDS011;4556;49.150;8.808;2023-03-03T09:22:58;28.37;;;17.90;;
9042;SDS011;4556;49.150;8.808;2023-03-03T09:25:50;27.30;;;17.33;;
9042;SDS011;4556;49.150;8.808;2023-03-03T09:28:18;27.33;;;17.73;;
9042;SDS011;4556;49.150;8.808;2023-03-03T09:30:50;26.67;;;17.40;;
9042;SDS011;4556;49.150;8.808;2023-03-03T09:33:19;24.13;;;17.33;;
9042;SDS011;4556;49.150;8.808;2023-03-03T09:35:52;27.10;;;17.70;;
9042;SDS011;4556;49.150;8.808;2023-03-03T09:38:27;28.17;;;17.97;;
9042;SDS011;4556;49.150;8.808;2023-03-03T09:41:08;25.43;;;16.77;;
9042;SDS011;4556;49.150;8.808;2023-03-03T09:46:53;29.53;;;17.43;;
9042;SDS011;4556;49.150;8.808;2023-03-03T09:49:33;28.57;;;17.83;;
9042;SDS011;4556;49.150;8.808;2023-03-03T09:52:12;29.33;;;18.13;;
9042;SDS011;4556;49.150;8.808;2023-03-03T09:55:00;27.80;;;17.17;;
9042;SDS011;4556;49.150;8.808;2023-03-03T09:57:45;26.13;;;17.07;;
9042;SDS011;4556;49.150;8.808;2023-03-03T10:00:30;26.50;;;17.80;;
9042;SDS011;4556;49.150;8.808;2023-03-03T10:03:15;26.47;;;17.93;;
9042;SDS011;4556;49.150;8.808;2023-03-03T10:06:15;30.13;;;18.37;;
9042;SDS011;4556;49.150;8.808;2023-03-03T10:11:49;28.47;;;16.80;;
9042;SDS011;4556;49.150;8.808;2023-03-03T10:14:27;28.07;;;17.17;;
9042;SDS011;4556;49.150;8.808;2023-03-03T10:17:21;26.23;;;17.53;;
9042;SDS011;4556;49.150;8.808;2023-03-03T10:20:00;27.73;;;17.83;;
9042;SDS011;4556;49.150;8.808;2023-03-03T10:22:41;26.43;;;17.83;;
9042;SDS011;4556;49.150;8.808;2023-03-03T10:25:17;28.70;;;18.77;;
9042;SDS011;4556;49.150;8.808;2023-03-03T10:30:55;28.93;;;18.90;;
9042;SDS011;4556;49.150;8.808;2023-03-03T10:33:31;27.37;;;18.10;;
9042;SDS011;4556;49.150;8.808;2023-03-03T10:39:05;26.37;;;17.93;;
9042;SDS011;4556;49.150;8.808;2023-03-03T10:41:55;25.23;;;17.23;;
9042;SDS011;4556;49.150;8.808;2023-03-03T10:50:33;26.37;;;17.63;;
9042;SDS011;4556;49.150;8.808;2023-03-03T10:53:12;29.80;;;17.23;;
9042;SDS011;4556;49.150;8.808;2023-03-03T10:55:50;25.43;;;16.83;;
9042;SDS011;4556;49.150;8.808;2023-03-03T10:58:30;25.73;;;15.90;;
9042;SDS011;4556;49.150;8.808;2023-03-03T11:01:13;27.30;;;17.77;;
9042;SDS011;4556;49.150;8.808;2023-03-03T11:03:54;26.83;;;17.47;;
9042;SDS011;4556;49.150;8.808;2023-03-03T11:06:35;27.77;;;16.90;;
9042;SDS011;4556;49.150;8.808;2023-03-03T11:09:12;26.70;;;17.57;;
9042;SDS011;4556;49.150;8.808;2023-03-03T11:11:57;25.70;;;16.33;;
9042;SDS011;4556;49.150;8.808;2023-03-03T11:14:30;26.83;;;17.50;;
9042;SDS011;4556;49.150;8.808;2023-03-03T11:17:08;28.70;;;16.60;;
9042;SDS011;4556;49.150;8.808;2023-03-03T11:19:47;26.13;;;18.27;;
9042;SDS011;4556;49.150;8.808;2023-03-03T11:22:25;24.47;;;17.17;;
9042;SDS011;4556;49.150;8.808;2023-03-03T11:25:02;23.03;;;16.17;;
9042;SDS011;4556;49.150;8.808;2023-03-03T11:27:49;23.80;;;17.00;;
9042;SDS011;4556;49.150;8.808;2023-03-03T11:30:52;23.73;;;16.47;;
9042;SDS011;4556;49.150;8.808;2023-03-03T11:33:33;25.60;;;17.00;;
9042;SDS011;4556;49.150;8.808;2023-03-03T11:36:09;25.17;;;16.23;;
9042;SDS011;4556;49.150;8.808;2023-03-03T11:41:30;30.27;;;17.40;;
9042;SDS011;4556;49.150;8.808;2023-03-03T11:44:12;23.77;;;16.07;;
9042;SDS011;4556;49.150;8.808;2023-03-03T11:46:47;26.97;;;16.17;;
9042;SDS011;4556;49.150;8.808;2023-03-03T11:49:19;25.77;;;17.53;;
9042;SDS011;4556;49.150;8.808;2023-03-03T11:51:52;26.93;;;18.33;;
9042;SDS011;4556;49.150;8.808;2023-03-03T11:54:29;23.97;;;16.07;;
9042;SDS011;4556;49.150;8.808;2023-03-03T11:57:09;28.33;;;17.93;;
9042;SDS011;4556;49.150;8.808;2023-03-03T11:59:48;24.80;;;17.67;;
9042;SDS011;4556;49.150;8.808;2023-03-03T12:02:25;27.00;;;17.27;;
9042;SDS011;4556;49.150;8.808;2023-03-03T12:05:05;25.70;;;17.77;;
9042;SDS011;4556;49.150;8.808;2023-03-03T12:07:38;27.90;;;18.57;;
9042;SDS011;4556;49.150;8.808;2023-03-03T12:10:21;26.33;;;17.87;;
9042;SDS011;4556;49.150;8.808;2023-03-03T12:12:54;26.43;;;18.17;;
9042;SDS011;4556;49.150;8.808;2023-03-03T12:15:30;26.07;;;18.37;;
9042;SDS011;4556;49.150;8.808;2023-03-03T12:18:10;26.80;;;18.17;;
9042;SDS011;4556;49.150;8.808;2023-03-03T12:20:50;25.90;;;17.43;;
9042;SDS011;4556;49.150;8.808;2023-03-03T12:23:34;24.87;;;17.57;;
9042;SDS011;4556;49.150;8.808;2023-03-03T12:26:10;27.47;;;16.97;;
9042;SDS011;4556;49.150;8.808;2023-03-03T12:28:43;25.10;;;17.93;;
9042;SDS011;4556;49.150;8.808;2023-03-03T12:31:22;26.13;;;17.73;;
9042;SDS011;4556;49.150;8.808;2023-03-03T12:33:58;25.90;;;17.83;;
9042;SDS011;4556;49.150;8.808;2023-03-03T12:39:36;27.07;;;18.90;;
9042;SDS011;4556;49.150;8.808;2023-03-03T12:42:13;28.87;;;18.93;;
9042;SDS011;4556;49.150;8.808;2023-03-03T12:44:49;27.87;;;17.57;;
9042;SDS011;4556;49.150;8.808;2023-03-03T12:47:26;27.10;;;18.20;;
9042;SDS011;4556;49.150;8.808;2023-03-03T12:50:02;25.90;;;18.57;;
9042;SDS011;4556;49.150;8.808;2023-03-03T12:52:48;25.73;;;16.87;;
9042;SDS011;4556;49.150;8.808;2023-03-03T12:55:29;27.50;;;16.90;;
9042;SDS011;4556;49.150;8.808;2023-03-03T12:58:06;23.03;;;15.93;;
9042;SDS011;4556;49.150;8.808;2023-03-03T13:00:40;27.30;;;16.80;;
9042;SDS011;4556;49.150;8.808;2023-03-03T13:03:16;25.87;;;17.97;;
9042;SDS011;4556;49.150;8.808;2023-03-03T13:05:55;25.73;;;16.53;;
9042;SDS011;4556;49.150;8.808;2023-03-03T13:08:32;28.90;;;17.43;;
9042;SDS011;4556;49.150;8.808;2023-03-03T13:11:17;25.87;;;17.80;;
9042;SDS011;4556;49.150;8.808;2023-03-03T13:14:09;26.60;;;17.40;;
9042;SDS011;4556;49.150;8.808;2023-03-03T13:16:42;29.80;;;17.70;;
9042;SDS011;4556;49.150;8.808;2023-03-03T13:19:14;27.07;;;18.67;;
9042;SDS011;4556;49.150;8.808;2023-03-03T13:21:46;26.77;;;17.47;;
9042;SDS011;4556;49.150;8.808;2023-03-03T13:24:20;28.70;;;18.43;;
9042;SDS011;4556;49.150;8.808;2023-03-03T13:26:54;24.73;;;16.77;;
9042;SDS011;4556;49.150;8.808;2023-03-03T13:29:26;28.20;;;18.07;;
9042;SDS011;4556;49.150;8.808;2023-03-03T13:31:59;27.50;;;19.00;;
9042;SDS011;4556;49.150;8.808;2023-03-03T13:34:34;26.40;;;17.57;;
9042;SDS011;4556;49.150;8.808;2023-03-03T13:37:11;26.77;;;18.03;;
9042;SDS011;4556;49.150;8.808;2023-03-03T13:39:46;26.53;;;17.87;;
9042;SDS011;4556;49.150;8.808;2023-03-03T13:42:23;25.30;;;18.60;;
9042;SDS011;4556;49.150;8.808;2023-03-03T13:44:58;26.37;;;18.03;;
9042;SDS011;4556;49.150;8.808;2023-03-03T13:47:29;25.00;;;17.93;;
9042;SDS011;4556;49.150;8.808;2023-03-03T13:50:16;26.20;;;17.63;;
9042;SDS011;4556;49.150;8.808;2023-03-03T13:52:50;24.40;;;17.80;;
9042;SDS011;4556;49.150;8.808;2023-03-03T13:55:32;25.77;;;18.03;;
9042;SDS011;4556;49.150;8.808;2023-03-03T13:58:05;28.53;;;18.53;;
9042;SDS011;4556;49.150;8.808;2023-03-03T14:00:42;25.97;;;17.97;;
9042;SDS011;4556;49.150;8.808;2023-03-03T14:03:26;25.37;;;18.73;;
9042;SDS011;4556;49.150;8.808;2023-03-03T14:06:10;26.30;;;18.07;;
9042;SDS011;4556;49.150;8.808;2023-03-03T14:08:43;26.03;;;17.80;;
9042;SDS011;4556;49.150;8.808;2023-03-03T14:11:25;28.00;;;18.40;;
9042;SDS011;4556;49.150;8.808;2023-03-03T14:14:00;30.93;;;19.40;;
9042;SDS011;4556;49.150;8.808;2023-03-03T14:16:38;26.77;;;18.37;;
9042;SDS011;4556;49.150;8.808;2023-03-03T14:19:16;23.60;;;17.60;;
9042;SDS011;4556;49.150;8.808;2023-03-03T14:21:48;26.37;;;19.37;;
9042;SDS011;4556;49.150;8.808;2023-03-03T14:24:23;27.50;;;18.60;;
9042;SDS011;4556;49.150;8.808;2023-03-03T14:26:51;26.97;;;18.60;;
9042;SDS011;4556;49.150;8.808;2023-03-03T14:29:22;29.07;;;19.40;;
9042;SDS011;4556;49.150;8.808;2023-03-03T14:31:56;26.63;;;18.07;;
9042;SDS011;4556;49.150;8.808;2023-03-03T14:34:29;24.70;;;17.77;;
9042;SDS011;4556;49.150;8.808;2023-03-03T14:39:50;30.07;;;19.40;;
9042;SDS011;4556;49.150;8.808;2023-03-03T14:42:32;27.80;;;19.07;;
9042;SDS011;4556;49.150;8.808;2023-03-03T14:45:12;28.33;;;19.60;;
9042;SDS011;4556;49.150;8.808;2023-03-03T14:47:46;26.40;;;18.53;;
9042;SDS011;4556;49.150;8.808;2023-03-03T14:50:33;26.90;;;18.63;;
9042;SDS011;4556;49.150;8.808;2023-03-03T14:53:08;28.17;;;18.20;;
9042;SDS011;4556;49.150;8.808;2023-03-03T14:55:40;28.20;;;18.87;;
9042;SDS011;4556;49.150;8.808;2023-03-03T14:58:22;27.70;;;18.33;;
9042;SDS011;4556;49.150;8.808;2023-03-03T15:01:07;25.43;;;18.90;;
9042;SDS011;4556;49.150;8.808;2023-03-03T15:03:43;26.03;;;18.63;;
9042;SDS011;4556;49.150;8.808;2023-03-03T15:06:15;29.60;;;18.73;;
9042;SDS011;4556;49.150;8.808;2023-03-03T15:12:16;28.00;;;18.93;;
9042;SDS011;4556;49.150;8.808;2023-03-03T15:14:45;25.30;;;19.27;;
9042;SDS011;4556;49.150;8.808;2023-03-03T15:17:23;25.83;;;17.80;;
9042;SDS011;4556;49.150;8.808;2023-03-03T15:19:55;29.03;;;19.57;;
9042;SDS011;4556;49.150;8.808;2023-03-03T15:22:44;27.60;;;19.60;;
9042;SDS011;4556;49.150;8.808;2023-03-03T15:25:15;25.53;;;18.87;;
9042;SDS011;4556;49.150;8.808;2023-03-03T15:27:56;27.57;;;18.63;;
9042;SDS011;4556;49.150;8.808;2023-03-03T15:30:35;29.13;;;20.07;;
9042;SDS011;4556;49.150;8.808;2023-03-03T15:33:11;30.03;;;19.03;;
9042;SDS011;4556;49.150;8.808;2023-03-03T15:35:46;24.17;;;18.67;;
9042;SDS011;4556;49.150;8.808;2023-03-03T15:38:18;27.57;;;18.97;;
9042;SDS011;4556;49.150;8.808;2023-03-03T15:40:53;30.73;;;19.97;;
9042;SDS011;4556;49.150;8.808;2023-03-03T15:43:26;27.97;;;19.50;;
9042;SDS011;4556;49.150;8.808;2023-03-03T15:46:01;31.13;;;19.73;;
9042;SDS011;4556;49.150;8.808;2023-03-03T15:51:30;27.40;;;19.80;;